الصفحة الرئيسية
METAR-TAF:

METAR-TAF

مطار :

مطار مونتريال الدولي

مونتريال Trudeau, كيبك, كندا

دائرة عرض: 45-28N, خط طول: 073-45W, ارتفاع: 31 متر

مراقبة الطقس الحالي

تاريخ ووقت الإصدار 48 دقيقة قبل الساعة 09:07UTC
ريح 7 عقدة من الشمال
درجة الحرارة 12°درجة مئوية
الرطوبة 88%
ضغط 1015 hPa
الرؤية: 24.1 كم
غيوم قليلة على ارتفاع 900 قدم
غيوم متفرقة على ارتفاع 8000 قدم

METAR: CYUL 250907Z 35007KT 15SM FEW009 SCT080 12/10 A2996 RMK SF2AC2 SLP146

زمن: 05:55 (09:55 UTC)

توقعات

تاريخ ووقت الإصدار 1ساعة و 17 دقيقة قبل الساعة 08:38UTC
التوقعات صالحة من25 الساعة 09 UTC إلى 26 الساعة 06 UTC
ريح 8 عقدة من الشمال الغربي
الرؤية: 10 كم
سماء صافية
أصبح
من 25 الساعة 13 UTC إلى 25 الساعة 15 UTC
ريح 12 عقدة من الشمال/الشمال الغربي تتزايد حتى 22 عقدة
أصبح
من 25 الساعة 23 UTC إلى 26 الساعة 01 UTC
ريح 8 عقدة من الشمال/الشمال الغربي

TAF: CYUL 250838Z 2509/2606 32008KT P6SM SKC BECMG 2513/2515 34012G22KT BECMG 2523/2601 34008KT RMK NXT FCST BY 251200Z

أرصاد الطقس والتوقعات من أكثر من 4000 مطار (تقارير الطقس للمطار METAR والتنبؤ بالطقس بالمطارTAF).

المحطات المتاحة هي النقط الصفراء والحمراء على الخريطة.

حرك المؤشر فوق النقطة لمعرفة اسم المحطة.

ثم انقر لمعرفة أرصاد وتوقعات الطقس.

لتغيير الخارطة: اضغط على الأزرار الخضراء مع رمز الصليب الأسود للتكبير. على الزر الأخضر مع شرطة للتصغير، أو على الأسهم الخضراء للخرائط المجاورة.


METAR-TAF: